createdAt,value
2022-07-29T00:04:54.867Z,0.98
2022-07-29T00:09:56.486Z,0.90
2022-07-29T00:14:58.198Z,1.40
2022-07-29T00:19:59.799Z,1.15
2022-07-29T00:25:01.398Z,1.00
2022-07-29T00:30:04.325Z,0.95
2022-07-29T00:35:25.590Z,1.08
2022-07-29T00:40:27.181Z,0.80
2022-07-29T00:45:29.125Z,1.23
2022-07-29T00:50:30.980Z,1.05
2022-07-29T00:55:32.734Z,0.90
2022-07-29T01:00:34.482Z,1.17
2022-07-29T01:05:48.051Z,1.00
2022-07-29T01:10:53.967Z,1.08
2022-07-29T01:16:02.272Z,1.27
2022-07-29T01:21:42.317Z,1.05
2022-07-29T01:26:44.225Z,0.90
2022-07-29T01:31:58.977Z,1.15
2022-07-29T01:37:29.297Z,0.90
2022-07-29T01:42:42.906Z,1.00
2022-07-29T01:47:49.580Z,1.02
2022-07-29T01:52:57.372Z,1.10
2022-07-29T01:58:01.714Z,1.13
2022-07-29T02:03:08.297Z,1.20
2022-07-29T02:08:11.971Z,0.93
2022-07-29T02:13:15.342Z,1.13
2022-07-29T02:18:19.315Z,1.00
2022-07-29T02:23:23.763Z,1.05
2022-07-29T02:28:28.214Z,1.17
2022-07-29T02:33:32.205Z,0.85
2022-07-29T02:38:51.513Z,1.15
2022-07-29T02:43:58.014Z,1.00
2022-07-29T02:49:10.008Z,0.93
2022-07-29T02:54:18.757Z,1.02
2022-07-29T02:59:25.759Z,1.30
2022-07-29T03:04:29.364Z,1.00
2022-07-29T03:09:31.606Z,1.38
2022-07-29T03:14:33.652Z,1.20
2022-07-29T03:19:35.446Z,1.00
2022-07-29T03:24:38.235Z,0.93
2022-07-29T03:29:39.885Z,1.10
2022-07-29T03:34:41.574Z,1.13
2022-07-29T03:39:45.125Z,1.30
2022-07-29T03:44:49.660Z,0.90
2022-07-29T03:49:53.576Z,0.90
2022-07-29T03:54:55.290Z,1.00
2022-07-29T03:59:57.311Z,1.13
2022-07-29T04:04:59.312Z,1.10
2022-07-29T04:10:00.919Z,1.00
2022-07-29T04:15:04.764Z,1.10
2022-07-29T04:20:06.815Z,1.05
2022-07-29T04:25:08.885Z,1.02
2022-07-29T04:30:10.594Z,1.50
2022-07-29T04:35:12.240Z,1.35
2022-07-29T04:40:13.974Z,1.30
2022-07-29T04:45:16.135Z,1.20
2022-07-29T04:50:17.932Z,1.40
2022-07-29T04:55:19.595Z,1.40
2022-07-29T05:00:21.451Z,1.58
2022-07-29T05:05:29.758Z,1.30
2022-07-29T05:10:31.444Z,1.30
2022-07-29T05:15:34.289Z,1.77
2022-07-29T05:20:36.172Z,1.83
2022-07-29T05:25:42.958Z,1.40
2022-07-29T05:30:46.225Z,1.40
2022-07-29T05:35:47.837Z,1.15
2022-07-29T05:40:49.457Z,1.85
2022-07-29T05:45:51.114Z,1.20
2022-07-29T05:50:52.766Z,1.20
2022-07-29T05:55:54.416Z,1.40
2022-07-29T06:01:00.444Z,1.33
2022-07-29T06:06:02.141Z,1.40
2022-07-29T06:11:05.461Z,1.50
2022-07-29T06:16:07.197Z,1.48
2022-07-29T06:21:10.685Z,1.40
2022-07-29T06:26:12.544Z,1.27
2022-07-29T06:31:14.271Z,1.30
2022-07-29T06:36:16.460Z,1.10
2022-07-29T06:41:19.203Z,1.40
2022-07-29T06:46:21.941Z,1.38
2022-07-29T06:51:24.318Z,1.10
2022-07-29T06:56:26.214Z,1.20
2022-07-29T07:01:27.858Z,1.38
2022-07-29T07:06:29.602Z,1.15
2022-07-29T07:11:31.538Z,1.00
2022-07-29T07:16:33.487Z,1.13
2022-07-29T07:21:35.401Z,1.33
2022-07-29T07:26:38.871Z,1.02
2022-07-29T07:31:40.598Z,1.40
2022-07-29T07:36:42.426Z,1.67
2022-07-29T07:41:44.070Z,1.52
2022-07-29T07:46:46.063Z,1.50
2022-07-29T07:51:50.629Z,1.42
2022-07-29T07:56:53.301Z,1.35
2022-07-29T08:01:56.533Z,1.95
2022-07-29T08:06:59.409Z,1.48
2022-07-29T08:12:04.553Z,1.60
2022-07-29T08:17:06.330Z,1.60
2022-07-29T08:22:08.025Z,1.40
2022-07-29T08:27:33.447Z,1.58
2022-07-29T08:32:52.688Z,1.60
2022-07-29T08:37:55.296Z,1.45
2022-07-29T08:42:57.122Z,1.30
2022-07-29T08:47:59.309Z,1.40
2022-07-29T08:53:01.062Z,1.40
2022-07-29T08:58:03.117Z,1.45
2022-07-29T09:03:06.044Z,1.30
2022-07-29T09:08:08.076Z,1.33
2022-07-29T09:13:09.812Z,3.47
2022-07-29T09:18:19.330Z,1.40
2022-07-29T09:23:27.738Z,1.50
2022-07-29T09:28:29.388Z,1.48
2022-07-29T09:33:41.261Z,1.52
2022-07-29T09:38:42.944Z,1.10
2022-07-29T09:43:55.231Z,1.35
2022-07-29T09:49:10.043Z,1.42
2022-07-29T09:54:28.595Z,1.42
2022-07-29T09:59:30.287Z,1.60
2022-07-29T10:04:42.477Z,1.20
2022-07-29T10:09:55.437Z,1.50
2022-07-29T10:14:57.176Z,1.10
2022-07-29T10:19:58.886Z,1.58
2022-07-29T10:25:00.723Z,1.20
2022-07-29T10:30:02.705Z,1.02
2022-07-29T10:35:13.012Z,1.17
2022-07-29T10:40:55.145Z,1.52
2022-07-29T10:46:01.192Z,1.30
2022-07-29T10:51:05.245Z,1.50
2022-07-29T10:56:25.405Z,1.63
2022-07-29T11:01:37.357Z,1.20
2022-07-29T11:07:11.081Z,1.40
2022-07-29T11:12:39.573Z,1.30
2022-07-29T11:18:00.367Z,1.40
2022-07-29T11:23:02.815Z,1.42
2022-07-29T11:28:22.700Z,1.90
2022-07-29T11:33:54.423Z,1.50
2022-07-29T11:38:51.547Z,1.83
2022-07-29T11:43:59.985Z,1.83
2022-07-29T11:49:03.167Z,1.67
2022-07-29T11:54:15.725Z,1.38
2022-07-29T11:59:20.127Z,1.65
2022-07-29T12:04:24.375Z,1.65
2022-07-29T12:09:27.842Z,2.13
2022-07-29T12:14:46.463Z,1.45
2022-07-29T12:19:48.597Z,1.55
2022-07-29T12:24:54.547Z,1.88
2022-07-29T12:30:06.464Z,1.73
2022-07-29T12:35:18.143Z,1.80
2022-07-29T12:40:22.170Z,1.77
2022-07-29T12:45:30.795Z,1.80
2022-07-29T12:50:33.328Z,2.20
2022-07-29T12:55:50.050Z,1.90
2022-07-29T13:01:00.998Z,2.22
2022-07-29T13:06:02.826Z,1.80
2022-07-29T13:11:04.545Z,2.00
2022-07-29T13:16:08.605Z,2.10
2022-07-29T13:21:15.970Z,1.80
2022-07-29T13:26:20.564Z,1.85
2022-07-29T13:31:22.981Z,2.05
2022-07-29T13:36:24.633Z,2.08
2022-07-29T13:41:26.850Z,2.10
2022-07-29T13:46:28.636Z,2.20
2022-07-29T13:51:30.261Z,2.25
2022-07-29T13:56:31.961Z,2.38
2022-07-29T14:01:33.674Z,1.90
2022-07-29T14:06:35.781Z,1.88
2022-07-29T14:11:39.310Z,2.03
2022-07-29T14:16:49.025Z,2.10
2022-07-29T14:21:53.626Z,2.20
2022-07-29T14:26:55.309Z,2.10
2022-07-29T14:31:57.295Z,2.30
2022-07-29T14:36:59.676Z,2.28
2022-07-29T14:42:01.735Z,2.17
2022-07-29T14:47:07.537Z,1.98
2022-07-29T14:52:09.892Z,2.45
2022-07-29T14:57:12.219Z,2.33
2022-07-29T15:02:13.964Z,2.50
2022-07-29T15:07:16.763Z,2.85
2022-07-29T15:12:18.392Z,2.42
2022-07-29T15:17:21.254Z,2.20
2022-07-29T15:22:23.030Z,2.50
2022-07-29T15:27:24.697Z,2.30
2022-07-29T15:32:26.788Z,1.70
2022-07-29T15:37:29.310Z,2.60
2022-07-29T15:42:50.990Z,1.98
2022-07-29T15:47:52.690Z,2.38
2022-07-29T15:52:54.866Z,1.52
2022-07-29T15:58:00.476Z,2.28
2022-07-29T16:03:02.201Z,1.90
2022-07-29T16:08:03.981Z,1.92
2022-07-29T16:13:05.760Z,2.33
2022-07-29T16:18:08.817Z,2.10
2022-07-29T16:23:12.201Z,2.40
2022-07-29T16:28:13.878Z,1.65
2022-07-29T16:33:15.504Z,2.08
2022-07-29T16:38:17.196Z,2.20
2022-07-29T16:43:19.060Z,2.42
2022-07-29T16:48:20.843Z,2.05
2022-07-29T16:53:23.758Z,2.00
2022-07-29T16:58:27.005Z,2.08
2022-07-29T17:03:28.649Z,1.90
2022-07-29T17:08:30.380Z,2.00
2022-07-29T17:13:32.002Z,2.33
2022-07-29T17:18:33.620Z,2.30
2022-07-29T17:23:35.565Z,2.55
2022-07-29T17:28:37.229Z,2.75
2022-07-29T17:33:38.977Z,3.00
2022-07-29T17:38:40.628Z,2.50
2022-07-29T17:43:42.394Z,2.10
2022-07-29T17:48:44.747Z,2.67
2022-07-29T17:53:46.468Z,2.80
2022-07-29T17:58:48.229Z,2.58
2022-07-29T18:03:50.035Z,2.30
2022-07-29T18:08:51.998Z,3.20
2022-07-29T18:13:54.565Z,8.23
2022-07-29T18:18:56.530Z,3.38
2022-07-29T18:23:58.166Z,3.45
2022-07-29T18:28:59.894Z,3.85
2022-07-29T18:34:01.949Z,3.60
2022-07-29T18:39:03.825Z,3.85
2022-07-29T18:44:05.551Z,4.00
2022-07-29T18:49:07.232Z,4.25
2022-07-29T18:54:10.001Z,3.45
2022-07-29T18:59:16.678Z,3.65
2022-07-29T19:04:18.688Z,3.17
2022-07-29T19:09:20.710Z,3.35
2022-07-29T19:14:22.457Z,3.53
2022-07-29T19:19:25.346Z,3.08
2022-07-29T19:24:26.986Z,3.35
2022-07-29T19:29:28.728Z,3.40
2022-07-29T19:34:30.441Z,3.25
2022-07-29T19:39:35.558Z,3.60
2022-07-29T19:44:37.471Z,3.42
2022-07-29T19:49:40.286Z,4.25
2022-07-29T19:54:42.002Z,4.25
2022-07-29T19:59:44.347Z,3.72
2022-07-29T20:04:45.988Z,4.10
2022-07-29T20:09:49.221Z,3.80
2022-07-29T20:14:51.347Z,4.00
2022-07-29T20:19:53.098Z,4.65
2022-07-29T20:24:54.782Z,4.80
2022-07-29T20:29:56.517Z,4.18
2022-07-29T20:34:58.242Z,3.95
2022-07-29T20:40:00.032Z,4.90
2022-07-29T20:45:06.818Z,4.20
2022-07-29T20:50:10.340Z,4.00
2022-07-29T20:55:12.012Z,4.00
2022-07-29T21:00:14.118Z,3.80
2022-07-29T21:05:16.051Z,3.95
2022-07-29T21:10:20.876Z,4.60
2022-07-29T21:15:22.652Z,4.22
2022-07-29T21:20:24.466Z,3.40
2022-07-29T21:25:26.593Z,3.28
2022-07-29T21:30:28.293Z,2.97
2022-07-29T21:36:06.939Z,3.15
2022-07-29T21:40:53.277Z,2.72
2022-07-29T21:45:56.538Z,2.63
2022-07-29T21:50:58.333Z,2.75
2022-07-29T21:56:01.584Z,2.20
2022-07-29T22:01:03.301Z,2.35
2022-07-29T22:06:05.150Z,1.42
2022-07-29T22:11:06.817Z,2.67
2022-07-29T22:16:10.118Z,3.80
2022-07-29T22:21:12.070Z,5.07
2022-07-29T22:26:13.788Z,5.00
2022-07-29T22:31:15.618Z,5.10
2022-07-29T22:36:18.181Z,5.20
2022-07-29T22:41:19.945Z,5.20
2022-07-29T22:46:21.664Z,5.25
2022-07-29T22:51:23.522Z,5.47
2022-07-29T22:56:25.377Z,5.15
2022-07-29T23:01:37.206Z,5.25
2022-07-29T23:06:40.123Z,5.75
2022-07-29T23:11:41.950Z,5.65
2022-07-29T23:16:44.422Z,5.28
2022-07-29T23:21:46.135Z,5.15
2022-07-29T23:26:47.994Z,5.00
2022-07-29T23:31:49.722Z,5.70
2022-07-29T23:36:51.614Z,4.72
2022-07-29T23:41:53.537Z,3.55
2022-07-29T23:46:55.183Z,3.20
2022-07-29T23:51:56.989Z,3.55
2022-07-29T23:56:59.066Z,3.40
